sensor_id;sensor_type;location;lat;lon;timestamp;P1;durP1;ratioP1;P2;durP2;ratioP2
140;SDS011;65;48.778;9.160;2024-03-02T00:01:51;9.52;;;4.30;;
140;SDS011;65;48.778;9.160;2024-03-02T00:04:37;7.65;;;4.15;;
140;SDS011;65;48.778;9.160;2024-03-02T00:07:23;7.05;;;4.00;;
140;SDS011;65;48.778;9.160;2024-03-02T00:10:10;8.85;;;3.83;;
140;SDS011;65;48.778;9.160;2024-03-02T00:12:57;6.43;;;3.42;;
140;SDS011;65;48.778;9.160;2024-03-02T00:15:47;11.75;;;4.10;;
140;SDS011;65;48.778;9.160;2024-03-02T00:18:36;7.03;;;3.67;;
140;SDS011;65;48.778;9.160;2024-03-02T00:21:24;10.07;;;3.83;;
140;SDS011;65;48.778;9.160;2024-03-02T00:24:21;9.48;;;4.45;;
140;SDS011;65;48.778;9.160;2024-03-02T00:27:10;7.60;;;4.13;;
140;SDS011;65;48.778;9.160;2024-03-02T00:30:00;7.93;;;3.75;;
140;SDS011;65;48.778;9.160;2024-03-02T00:32:46;6.70;;;3.42;;
140;SDS011;65;48.778;9.160;2024-03-02T00:35:33;8.80;;;4.20;;
140;SDS011;65;48.778;9.160;2024-03-02T00:38:18;8.15;;;3.90;;
140;SDS011;65;48.778;9.160;2024-03-02T00:41:05;7.82;;;4.18;;
140;SDS011;65;48.778;9.160;2024-03-02T00:44:06;7.32;;;3.28;;
140;SDS011;65;48.778;9.160;2024-03-02T00:46:53;8.23;;;3.72;;
140;SDS011;65;48.778;9.160;2024-03-02T00:49:39;7.80;;;4.00;;
140;SDS011;65;48.778;9.160;2024-03-02T00:52:24;8.85;;;3.63;;
140;SDS011;65;48.778;9.160;2024-03-02T00:55:10;7.80;;;4.10;;
140;SDS011;65;48.778;9.160;2024-03-02T00:57:56;7.25;;;3.33;;
140;SDS011;65;48.778;9.160;2024-03-02T01:00:42;7.65;;;4.07;;
140;SDS011;65;48.778;9.160;2024-03-02T01:03:27;6.68;;;3.30;;
140;SDS011;65;48.778;9.160;2024-03-02T01:06:13;11.93;;;3.95;;
140;SDS011;65;48.778;9.160;2024-03-02T01:08:59;8.55;;;3.65;;
140;SDS011;65;48.778;9.160;2024-03-02T01:11:45;8.23;;;3.35;;
140;SDS011;65;48.778;9.160;2024-03-02T01:14:30;9.57;;;3.63;;
140;SDS011;65;48.778;9.160;2024-03-02T01:17:16;7.45;;;4.10;;
140;SDS011;65;48.778;9.160;2024-03-02T01:20:02;9.88;;;4.20;;
140;SDS011;65;48.778;9.160;2024-03-02T01:22:48;7.57;;;3.80;;
140;SDS011;65;48.778;9.160;2024-03-02T01:25:34;7.30;;;3.42;;
140;SDS011;65;48.778;9.160;2024-03-02T01:28:19;7.95;;;4.05;;
140;SDS011;65;48.778;9.160;2024-03-02T01:31:06;7.03;;;3.72;;
140;SDS011;65;48.778;9.160;2024-03-02T01:33:51;8.23;;;3.40;;
140;SDS011;65;48.778;9.160;2024-03-02T01:36:37;9.65;;;3.78;;
140;SDS011;65;48.778;9.160;2024-03-02T01:39:23;10.25;;;3.83;;
140;SDS011;65;48.778;9.160;2024-03-02T01:42:08;5.97;;;3.40;;
140;SDS011;65;48.778;9.160;2024-03-02T01:44:56;7.45;;;3.42;;
140;SDS011;65;48.778;9.160;2024-03-02T01:47:41;6.22;;;3.10;;
140;SDS011;65;48.778;9.160;2024-03-02T01:50:28;8.77;;;3.53;;
140;SDS011;65;48.778;9.160;2024-03-02T01:53:14;9.10;;;3.40;;
140;SDS011;65;48.778;9.160;2024-03-02T01:56:00;7.60;;;3.65;;
140;SDS011;65;48.778;9.160;2024-03-02T01:58:46;7.68;;;3.55;;
140;SDS011;65;48.778;9.160;2024-03-02T02:01:32;8.07;;;3.53;;
140;SDS011;65;48.778;9.160;2024-03-02T02:04:18;6.93;;;3.45;;
140;SDS011;65;48.778;9.160;2024-03-02T02:07:06;8.82;;;4.38;;
140;SDS011;65;48.778;9.160;2024-03-02T02:09:52;7.35;;;3.83;;
140;SDS011;65;48.778;9.160;2024-03-02T02:12:38;9.18;;;3.78;;
140;SDS011;65;48.778;9.160;2024-03-02T02:15:28;7.80;;;3.88;;
140;SDS011;65;48.778;9.160;2024-03-02T02:18:15;7.38;;;3.83;;
140;SDS011;65;48.778;9.160;2024-03-02T02:21:00;9.20;;;4.10;;
140;SDS011;65;48.778;9.160;2024-03-02T02:23:46;7.97;;;3.83;;
140;SDS011;65;48.778;9.160;2024-03-02T02:26:33;10.55;;;3.80;;
140;SDS011;65;48.778;9.160;2024-03-02T02:29:19;6.28;;;3.25;;
140;SDS011;65;48.778;9.160;2024-03-02T02:32:05;12.82;;;3.95;;
140;SDS011;65;48.778;9.160;2024-03-02T02:34:54;8.85;;;4.15;;
140;SDS011;65;48.778;9.160;2024-03-02T02:37:39;8.40;;;3.78;;
140;SDS011;65;48.778;9.160;2024-03-02T02:40:25;7.07;;;3.15;;
140;SDS011;65;48.778;9.160;2024-03-02T02:43:11;6.95;;;3.53;;
140;SDS011;65;48.778;9.160;2024-03-02T02:45:57;9.32;;;4.15;;
140;SDS011;65;48.778;9.160;2024-03-02T02:48:43;8.30;;;3.35;;
140;SDS011;65;48.778;9.160;2024-03-02T02:51:28;7.28;;;4.05;;
140;SDS011;65;48.778;9.160;2024-03-02T02:54:14;8.35;;;3.40;;
140;SDS011;65;48.778;9.160;2024-03-02T02:57:00;11.10;;;4.28;;
140;SDS011;65;48.778;9.160;2024-03-02T02:59:45;7.22;;;3.50;;
140;SDS011;65;48.778;9.160;2024-03-02T03:02:31;8.95;;;3.97;;
140;SDS011;65;48.778;9.160;2024-03-02T03:05:17;10.93;;;4.22;;
140;SDS011;65;48.778;9.160;2024-03-02T03:08:03;8.18;;;3.55;;
140;SDS011;65;48.778;9.160;2024-03-02T03:10:49;8.93;;;4.30;;
140;SDS011;65;48.778;9.160;2024-03-02T03:13:35;7.55;;;3.75;;
140;SDS011;65;48.778;9.160;2024-03-02T03:16:21;6.78;;;3.33;;
140;SDS011;65;48.778;9.160;2024-03-02T03:19:06;6.18;;;3.30;;
140;SDS011;65;48.778;9.160;2024-03-02T03:21:52;6.30;;;3.22;;
140;SDS011;65;48.778;9.160;2024-03-02T03:24:38;6.85;;;3.42;;
140;SDS011;65;48.778;9.160;2024-03-02T03:27:24;9.45;;;4.13;;
140;SDS011;65;48.778;9.160;2024-03-02T03:30:10;8.65;;;3.92;;
140;SDS011;65;48.778;9.160;2024-03-02T03:32:56;10.27;;;3.92;;
140;SDS011;65;48.778;9.160;2024-03-02T03:35:42;9.10;;;3.67;;
140;SDS011;65;48.778;9.160;2024-03-02T03:38:27;9.23;;;4.18;;
140;SDS011;65;48.778;9.160;2024-03-02T03:41:13;9.13;;;3.92;;
140;SDS011;65;48.778;9.160;2024-03-02T03:43:59;7.20;;;3.47;;
140;SDS011;65;48.778;9.160;2024-03-02T03:46:44;8.60;;;4.05;;
140;SDS011;65;48.778;9.160;2024-03-02T03:49:30;8.50;;;4.35;;
140;SDS011;65;48.778;9.160;2024-03-02T03:55:42;7.82;;;3.28;;
140;SDS011;65;48.778;9.160;2024-03-02T03:58:28;8.27;;;3.97;;
140;SDS011;65;48.778;9.160;2024-03-02T04:01:13;9.70;;;4.00;;
140;SDS011;65;48.778;9.160;2024-03-02T04:03:59;7.53;;;3.47;;
140;SDS011;65;48.778;9.160;2024-03-02T04:06:47;9.75;;;3.53;;
140;SDS011;65;48.778;9.160;2024-03-02T04:09:33;9.60;;;4.15;;
140;SDS011;65;48.778;9.160;2024-03-02T04:12:18;11.73;;;3.60;;
140;SDS011;65;48.778;9.160;2024-03-02T04:15:04;8.38;;;3.25;;
140;SDS011;65;48.778;9.160;2024-03-02T04:17:51;10.50;;;4.82;;
140;SDS011;65;48.778;9.160;2024-03-02T04:20:37;8.63;;;3.83;;
140;SDS011;65;48.778;9.160;2024-03-02T04:23:23;7.15;;;3.58;;
140;SDS011;65;48.778;9.160;2024-03-02T04:26:08;12.38;;;3.92;;
140;SDS011;65;48.778;9.160;2024-03-02T04:28:54;8.07;;;3.75;;
140;SDS011;65;48.778;9.160;2024-03-02T04:31:40;11.07;;;5.03;;
140;SDS011;65;48.778;9.160;2024-03-02T04:34:26;11.38;;;4.85;;
140;SDS011;65;48.778;9.160;2024-03-02T04:37:11;10.00;;;4.25;;
140;SDS011;65;48.778;9.160;2024-03-02T04:40:00;10.40;;;4.28;;
140;SDS011;65;48.778;9.160;2024-03-02T04:42:46;8.65;;;3.80;;
140;SDS011;65;48.778;9.160;2024-03-02T04:45:31;10.25;;;3.78;;
140;SDS011;65;48.778;9.160;2024-03-02T04:48:17;7.45;;;3.00;;
140;SDS011;65;48.778;9.160;2024-03-02T04:51:03;10.50;;;3.80;;
140;SDS011;65;48.778;9.160;2024-03-02T04:53:49;7.13;;;2.95;;
140;SDS011;65;48.778;9.160;2024-03-02T04:56:35;6.88;;;3.85;;
140;SDS011;65;48.778;9.160;2024-03-02T04:59:29;11.13;;;4.07;;
140;SDS011;65;48.778;9.160;2024-03-02T05:02:16;7.72;;;3.13;;
140;SDS011;65;48.778;9.160;2024-03-02T05:05:02;8.10;;;4.07;;
140;SDS011;65;48.778;9.160;2024-03-02T05:07:48;10.50;;;4.82;;
140;SDS011;65;48.778;9.160;2024-03-02T05:10:34;12.02;;;4.93;;
140;SDS011;65;48.778;9.160;2024-03-02T05:13:21;11.38;;;3.90;;
140;SDS011;65;48.778;9.160;2024-03-02T05:16:07;8.70;;;4.05;;
140;SDS011;65;48.778;9.160;2024-03-02T05:18:53;9.13;;;4.35;;
140;SDS011;65;48.778;9.160;2024-03-02T05:21:38;10.73;;;4.20;;
140;SDS011;65;48.778;9.160;2024-03-02T05:24:24;10.23;;;3.60;;
140;SDS011;65;48.778;9.160;2024-03-02T05:27:12;8.10;;;3.53;;
140;SDS011;65;48.778;9.160;2024-03-02T05:29:58;10.77;;;4.13;;
140;SDS011;65;48.778;9.160;2024-03-02T05:32:44;8.60;;;3.67;;
140;SDS011;65;48.778;9.160;2024-03-02T05:35:30;11.63;;;4.45;;
140;SDS011;65;48.778;9.160;2024-03-02T05:38:16;9.20;;;4.05;;
140;SDS011;65;48.778;9.160;2024-03-02T05:41:01;10.52;;;4.15;;
140;SDS011;65;48.778;9.160;2024-03-02T05:43:47;8.93;;;3.97;;
140;SDS011;65;48.778;9.160;2024-03-02T05:46:33;12.65;;;4.13;;
140;SDS011;65;48.778;9.160;2024-03-02T05:49:19;9.07;;;4.43;;
140;SDS011;65;48.778;9.160;2024-03-02T05:52:04;7.88;;;3.75;;
140;SDS011;65;48.778;9.160;2024-03-02T05:54:50;11.15;;;4.55;;
140;SDS011;65;48.778;9.160;2024-03-02T05:57:36;5.95;;;3.20;;
140;SDS011;65;48.778;9.160;2024-03-02T06:00:40;7.18;;;3.30;;
140;SDS011;65;48.778;9.160;2024-03-02T06:03:26;7.50;;;3.22;;
140;SDS011;65;48.778;9.160;2024-03-02T06:06:13;8.48;;;3.40;;
140;SDS011;65;48.778;9.160;2024-03-02T06:08:59;16.00;;;4.40;;
140;SDS011;65;48.778;9.160;2024-03-02T06:11:46;12.15;;;4.13;;
140;SDS011;65;48.778;9.160;2024-03-02T06:14:31;9.63;;;4.53;;
140;SDS011;65;48.778;9.160;2024-03-02T06:17:17;8.15;;;3.53;;
140;SDS011;65;48.778;9.160;2024-03-02T06:20:05;9.77;;;4.93;;
140;SDS011;65;48.778;9.160;2024-03-02T06:22:53;8.18;;;3.60;;
140;SDS011;65;48.778;9.160;2024-03-02T06:25:39;7.65;;;3.65;;
140;SDS011;65;48.778;9.160;2024-03-02T06:28:24;12.38;;;3.78;;
140;SDS011;65;48.778;9.160;2024-03-02T06:31:10;10.55;;;4.35;;
140;SDS011;65;48.778;9.160;2024-03-02T06:33:56;9.00;;;3.92;;
140;SDS011;65;48.778;9.160;2024-03-02T06:36:42;10.85;;;4.80;;
140;SDS011;65;48.778;9.160;2024-03-02T06:39:28;9.27;;;4.35;;
140;SDS011;65;48.778;9.160;2024-03-02T06:42:13;8.82;;;3.83;;
140;SDS011;65;48.778;9.160;2024-03-02T06:44:59;8.25;;;3.45;;
140;SDS011;65;48.778;9.160;2024-03-02T06:47:45;8.30;;;4.30;;
140;SDS011;65;48.778;9.160;2024-03-02T06:50:31;8.00;;;3.60;;
140;SDS011;65;48.778;9.160;2024-03-02T06:53:16;10.80;;;5.18;;
140;SDS011;65;48.778;9.160;2024-03-02T06:56:03;10.82;;;4.03;;
140;SDS011;65;48.778;9.160;2024-03-02T06:58:49;11.65;;;4.72;;
140;SDS011;65;48.778;9.160;2024-03-02T07:01:35;16.98;;;4.53;;
140;SDS011;65;48.778;9.160;2024-03-02T07:04:21;9.40;;;4.32;;
140;SDS011;65;48.778;9.160;2024-03-02T07:07:07;9.50;;;4.47;;
140;SDS011;65;48.778;9.160;2024-03-02T07:09:52;8.27;;;3.58;;
140;SDS011;65;48.778;9.160;2024-03-02T07:12:38;8.45;;;3.95;;
140;SDS011;65;48.778;9.160;2024-03-02T07:15:24;8.55;;;4.68;;
140;SDS011;65;48.778;9.160;2024-03-02T07:18:12;10.15;;;4.60;;
140;SDS011;65;48.778;9.160;2024-03-02T07:20:58;7.68;;;4.07;;
140;SDS011;65;48.778;9.160;2024-03-02T07:23:46;9.00;;;3.58;;
140;SDS011;65;48.778;9.160;2024-03-02T07:26:31;8.43;;;4.45;;
140;SDS011;65;48.778;9.160;2024-03-02T07:29:17;10.23;;;4.38;;
140;SDS011;65;48.778;9.160;2024-03-02T07:32:03;10.18;;;4.65;;
140;SDS011;65;48.778;9.160;2024-03-02T07:34:49;7.32;;;4.07;;
140;SDS011;65;48.778;9.160;2024-03-02T07:37:36;8.20;;;4.10;;
140;SDS011;65;48.778;9.160;2024-03-02T07:40:23;7.32;;;3.70;;
140;SDS011;65;48.778;9.160;2024-03-02T07:43:09;8.15;;;3.75;;
140;SDS011;65;48.778;9.160;2024-03-02T07:45:55;8.63;;;4.07;;
140;SDS011;65;48.778;9.160;2024-03-02T07:48:41;7.03;;;3.70;;
140;SDS011;65;48.778;9.160;2024-03-02T07:51:28;8.50;;;4.15;;
140;SDS011;65;48.778;9.160;2024-03-02T07:54:14;7.45;;;3.30;;
140;SDS011;65;48.778;9.160;2024-03-02T07:56:59;6.25;;;3.10;;
140;SDS011;65;48.778;9.160;2024-03-02T07:59:45;6.53;;;3.15;;
140;SDS011;65;48.778;9.160;2024-03-02T08:02:32;8.60;;;3.50;;
140;SDS011;65;48.778;9.160;2024-03-02T08:05:18;7.60;;;3.90;;
140;SDS011;65;48.778;9.160;2024-03-02T08:08:06;7.72;;;3.30;;
140;SDS011;65;48.778;9.160;2024-03-02T08:10:52;7.75;;;3.80;;
140;SDS011;65;48.778;9.160;2024-03-02T08:13:37;8.50;;;3.55;;
140;SDS011;65;48.778;9.160;2024-03-02T08:16:24;7.70;;;3.97;;
140;SDS011;65;48.778;9.160;2024-03-02T08:19:11;8.00;;;3.67;;
140;SDS011;65;48.778;9.160;2024-03-02T08:21:57;5.80;;;3.63;;
140;SDS011;65;48.778;9.160;2024-03-02T08:24:44;7.10;;;3.30;;
140;SDS011;65;48.778;9.160;2024-03-02T08:27:31;7.63;;;3.53;;
140;SDS011;65;48.778;9.160;2024-03-02T08:30:17;7.45;;;3.70;;
140;SDS011;65;48.778;9.160;2024-03-02T08:33:03;6.78;;;3.67;;
140;SDS011;65;48.778;9.160;2024-03-02T08:35:49;7.78;;;3.85;;
140;SDS011;65;48.778;9.160;2024-03-02T08:38:35;8.02;;;3.63;;
140;SDS011;65;48.778;9.160;2024-03-02T08:41:21;7.70;;;4.00;;
140;SDS011;65;48.778;9.160;2024-03-02T08:44:07;7.35;;;3.72;;
140;SDS011;65;48.778;9.160;2024-03-02T08:46:52;8.02;;;3.90;;
140;SDS011;65;48.778;9.160;2024-03-02T08:49:38;6.75;;;3.63;;
140;SDS011;65;48.778;9.160;2024-03-02T08:52:24;10.20;;;3.40;;
140;SDS011;65;48.778;9.160;2024-03-02T08:55:10;7.45;;;3.70;;
140;SDS011;65;48.778;9.160;2024-03-02T08:57:56;8.50;;;3.47;;
140;SDS011;65;48.778;9.160;2024-03-02T09:00:42;6.20;;;3.25;;
140;SDS011;65;48.778;9.160;2024-03-02T09:03:28;6.78;;;3.67;;
140;SDS011;65;48.778;9.160;2024-03-02T09:06:14;8.38;;;3.47;;
140;SDS011;65;48.778;9.160;2024-03-02T09:09:02;6.43;;;3.55;;
140;SDS011;65;48.778;9.160;2024-03-02T09:11:49;6.22;;;3.10;;
140;SDS011;65;48.778;9.160;2024-03-02T09:14:35;6.43;;;3.40;;
140;SDS011;65;48.778;9.160;2024-03-02T09:17:22;6.88;;;3.80;;
140;SDS011;65;48.778;9.160;2024-03-02T09:20:10;6.07;;;3.08;;
140;SDS011;65;48.778;9.160;2024-03-02T09:22:56;7.97;;;3.83;;
140;SDS011;65;48.778;9.160;2024-03-02T09:25:42;7.30;;;3.33;;
140;SDS011;65;48.778;9.160;2024-03-02T09:28:28;8.57;;;3.30;;
140;SDS011;65;48.778;9.160;2024-03-02T09:31:13;6.93;;;3.10;;
140;SDS011;65;48.778;9.160;2024-03-02T09:33:59;6.88;;;3.22;;
140;SDS011;65;48.778;9.160;2024-03-02T09:36:45;5.82;;;2.95;;
140;SDS011;65;48.778;9.160;2024-03-02T09:39:30;6.57;;;3.00;;
140;SDS011;65;48.778;9.160;2024-03-02T09:42:16;6.97;;;3.40;;
140;SDS011;65;48.778;9.160;2024-03-02T09:45:02;7.65;;;3.17;;
140;SDS011;65;48.778;9.160;2024-03-02T09:47:49;6.00;;;2.92;;
140;SDS011;65;48.778;9.160;2024-03-02T09:50:34;7.40;;;3.35;;
140;SDS011;65;48.778;9.160;2024-03-02T09:53:20;6.47;;;3.10;;
140;SDS011;65;48.778;9.160;2024-03-02T09:56:08;5.25;;;2.90;;
140;SDS011;65;48.778;9.160;2024-03-02T09:58:54;5.97;;;2.83;;
140;SDS011;65;48.778;9.160;2024-03-02T10:01:40;6.55;;;2.70;;
140;SDS011;65;48.778;9.160;2024-03-02T10:04:40;5.47;;;2.72;;
140;SDS011;65;48.778;9.160;2024-03-02T10:07:26;4.72;;;2.60;;
140;SDS011;65;48.778;9.160;2024-03-02T10:10:12;5.30;;;2.65;;
140;SDS011;65;48.778;9.160;2024-03-02T10:13:09;4.90;;;2.50;;
140;SDS011;65;48.778;9.160;2024-03-02T10:15:56;4.95;;;2.65;;
140;SDS011;65;48.778;9.160;2024-03-02T10:18:57;5.07;;;2.65;;
140;SDS011;65;48.778;9.160;2024-03-02T10:21:43;4.90;;;2.58;;
140;SDS011;65;48.778;9.160;2024-03-02T10:24:40;4.80;;;2.42;;
140;SDS011;65;48.778;9.160;2024-03-02T10:27:27;3.83;;;2.38;;
140;SDS011;65;48.778;9.160;2024-03-02T10:30:14;4.38;;;2.28;;
140;SDS011;65;48.778;9.160;2024-03-02T10:33:00;3.75;;;2.10;;
140;SDS011;65;48.778;9.160;2024-03-02T10:35:50;4.20;;;2.30;;
140;SDS011;65;48.778;9.160;2024-03-02T10:38:36;5.95;;;2.33;;
140;SDS011;65;48.778;9.160;2024-03-02T10:41:23;4.45;;;2.33;;
140;SDS011;65;48.778;9.160;2024-03-02T10:44:09;3.30;;;2.10;;
140;SDS011;65;48.778;9.160;2024-03-02T10:46:55;6.25;;;2.50;;
140;SDS011;65;48.778;9.160;2024-03-02T10:49:41;5.07;;;2.70;;
140;SDS011;65;48.778;9.160;2024-03-02T10:52:30;6.40;;;3.30;;
140;SDS011;65;48.778;9.160;2024-03-02T10:55:16;4.55;;;2.53;;
140;SDS011;65;48.778;9.160;2024-03-02T10:58:03;5.72;;;3.38;;
140;SDS011;65;48.778;9.160;2024-03-02T11:00:52;5.20;;;2.70;;
140;SDS011;65;48.778;9.160;2024-03-02T11:03:38;5.53;;;2.75;;
140;SDS011;65;48.778;9.160;2024-03-02T11:06:26;3.55;;;2.22;;
140;SDS011;65;48.778;9.160;2024-03-02T11:09:13;4.50;;;2.60;;
140;SDS011;65;48.778;9.160;2024-03-02T11:12:04;5.07;;;2.72;;
140;SDS011;65;48.778;9.160;2024-03-02T11:14:57;4.55;;;2.40;;
140;SDS011;65;48.778;9.160;2024-03-02T11:17:44;4.85;;;2.80;;
140;SDS011;65;48.778;9.160;2024-03-02T11:20:31;4.00;;;2.20;;
140;SDS011;65;48.778;9.160;2024-03-02T11:23:17;4.18;;;2.35;;
140;SDS011;65;48.778;9.160;2024-03-02T11:26:21;3.97;;;2.30;;
140;SDS011;65;48.778;9.160;2024-03-02T11:29:09;3.28;;;1.80;;
140;SDS011;65;48.778;9.160;2024-03-02T11:32:21;4.82;;;1.58;;
140;SDS011;65;48.778;9.160;2024-03-02T11:35:09;2.95;;;1.40;;
140;SDS011;65;48.778;9.160;2024-03-02T11:37:54;2.67;;;1.70;;
140;SDS011;65;48.778;9.160;2024-03-02T11:40:40;5.43;;;1.25;;
140;SDS011;65;48.778;9.160;2024-03-02T11:43:29;2.05;;;1.00;;
140;SDS011;65;48.778;9.160;2024-03-02T11:46:15;1.60;;;1.08;;
140;SDS011;65;48.778;9.160;2024-03-02T11:49:01;0.80;;;0.65;;
140;SDS011;65;48.778;9.160;2024-03-02T11:52:01;0.98;;;0.80;;
140;SDS011;65;48.778;9.160;2024-03-02T11:54:47;0.40;;;0.40;;
140;SDS011;65;48.778;9.160;2024-03-02T11:57:34;0.60;;;0.60;;
140;SDS011;65;48.778;9.160;2024-03-02T12:00:20;0.60;;;0.60;;
140;SDS011;65;48.778;9.160;2024-03-02T12:03:07;1.25;;;0.90;;
140;SDS011;65;48.778;9.160;2024-03-02T12:05:55;2.50;;;0.70;;
140;SDS011;65;48.778;9.160;2024-03-02T12:08:41;0.73;;;0.52;;
140;SDS011;65;48.778;9.160;2024-03-02T12:11:27;1.60;;;0.90;;
140;SDS011;65;48.778;9.160;2024-03-02T12:14:12;0.75;;;0.60;;
140;SDS011;65;48.778;9.160;2024-03-02T12:16:58;0.68;;;0.60;;
140;SDS011;65;48.778;9.160;2024-03-02T12:19:44;0.55;;;0.55;;
140;SDS011;65;48.778;9.160;2024-03-02T12:22:31;1.08;;;0.80;;
140;SDS011;65;48.778;9.160;2024-03-02T12:25:17;2.08;;;0.73;;
140;SDS011;65;48.778;9.160;2024-03-02T12:28:04;1.98;;;1.05;;
140;SDS011;65;48.778;9.160;2024-03-02T12:30:50;1.00;;;0.60;;
140;SDS011;65;48.778;9.160;2024-03-02T12:33:36;2.30;;;0.80;;
140;SDS011;65;48.778;9.160;2024-03-02T12:36:22;0.68;;;0.60;;
140;SDS011;65;48.778;9.160;2024-03-02T12:39:08;0.65;;;0.60;;
140;SDS011;65;48.778;9.160;2024-03-02T12:41:55;3.97;;;0.70;;
140;SDS011;65;48.778;9.160;2024-03-02T12:44:41;0.98;;;0.82;;
140;SDS011;65;48.778;9.160;2024-03-02T12:47:26;1.23;;;0.80;;
140;SDS011;65;48.778;9.160;2024-03-02T12:50:12;0.88;;;0.82;;
140;SDS011;65;48.778;9.160;2024-03-02T12:52:58;0.73;;;0.68;;
140;SDS011;65;48.778;9.160;2024-03-02T12:55:44;1.05;;;0.95;;
140;SDS011;65;48.778;9.160;2024-03-02T12:58:30;1.15;;;1.05;;
140;SDS011;65;48.778;9.160;2024-03-02T13:01:25;1.55;;;1.00;;
140;SDS011;65;48.778;9.160;2024-03-02T13:04:11;1.60;;;0.95;;
140;SDS011;65;48.778;9.160;2024-03-02T13:06:57;1.10;;;1.00;;
140;SDS011;65;48.778;9.160;2024-03-02T13:09:42;0.90;;;0.88;;
140;SDS011;65;48.778;9.160;2024-03-02T13:12:28;1.40;;;1.02;;
140;SDS011;65;48.778;9.160;2024-03-02T13:15:15;1.98;;;1.25;;
140;SDS011;65;48.778;9.160;2024-03-02T13:18:01;1.58;;;0.85;;
140;SDS011;65;48.778;9.160;2024-03-02T13:20:47;1.17;;;0.98;;
140;SDS011;65;48.778;9.160;2024-03-02T13:23:33;2.13;;;1.27;;
140;SDS011;65;48.778;9.160;2024-03-02T13:26:18;0.73;;;0.70;;
140;SDS011;65;48.778;9.160;2024-03-02T13:29:04;1.70;;;0.98;;
140;SDS011;65;48.778;9.160;2024-03-02T13:31:50;0.70;;;0.63;;
140;SDS011;65;48.778;9.160;2024-03-02T13:34:36;1.27;;;0.90;;
140;SDS011;65;48.778;9.160;2024-03-02T13:37:22;1.13;;;0.95;;
140;SDS011;65;48.778;9.160;2024-03-02T13:40:08;1.13;;;1.02;;
140;SDS011;65;48.778;9.160;2024-03-02T13:42:58;1.30;;;1.05;;
140;SDS011;65;48.778;9.160;2024-03-02T13:45:44;2.22;;;1.23;;
140;SDS011;65;48.778;9.160;2024-03-02T13:48:30;1.05;;;0.93;;
140;SDS011;65;48.778;9.160;2024-03-02T13:51:16;1.58;;;0.90;;
140;SDS011;65;48.778;9.160;2024-03-02T13:54:02;1.63;;;1.17;;
140;SDS011;65;48.778;9.160;2024-03-02T13:56:48;1.20;;;0.80;;
140;SDS011;65;48.778;9.160;2024-03-02T13:59:34;1.05;;;0.98;;
140;SDS011;65;48.778;9.160;2024-03-02T14:02:21;1.25;;;0.98;;
140;SDS011;65;48.778;9.160;2024-03-02T14:05:06;1.05;;;0.98;;
140;SDS011;65;48.778;9.160;2024-03-02T14:07:56;2.67;;;1.30;;
140;SDS011;65;48.778;9.160;2024-03-02T14:10:42;1.92;;;0.98;;
140;SDS011;65;48.778;9.160;2024-03-02T14:13:28;1.88;;;1.08;;
140;SDS011;65;48.778;9.160;2024-03-02T14:16:14;0.82;;;0.77;;
140;SDS011;65;48.778;9.160;2024-03-02T14:19:00;2.33;;;1.40;;
140;SDS011;65;48.778;9.160;2024-03-02T14:21:46;1.73;;;1.08;;
140;SDS011;65;48.778;9.160;2024-03-02T14:24:32;3.38;;;1.23;;
140;SDS011;65;48.778;9.160;2024-03-02T14:27:18;1.17;;;0.95;;
140;SDS011;65;48.778;9.160;2024-03-02T14:30:04;1.10;;;0.85;;
140;SDS011;65;48.778;9.160;2024-03-02T14:32:52;1.00;;;0.90;;
140;SDS011;65;48.778;9.160;2024-03-02T14:35:37;0.93;;;0.73;;
140;SDS011;65;48.778;9.160;2024-03-02T14:38:23;1.98;;;1.20;;
140;SDS011;65;48.778;9.160;2024-03-02T14:41:09;3.03;;;1.00;;
140;SDS011;65;48.778;9.160;2024-03-02T14:43:55;1.92;;;1.30;;
140;SDS011;65;48.778;9.160;2024-03-02T14:46:41;1.30;;;1.00;;
140;SDS011;65;48.778;9.160;2024-03-02T14:49:27;2.45;;;0.90;;
140;SDS011;65;48.778;9.160;2024-03-02T14:52:13;2.63;;;1.02;;
140;SDS011;65;48.778;9.160;2024-03-02T14:54:59;0.85;;;0.70;;
140;SDS011;65;48.778;9.160;2024-03-02T14:57:49;1.08;;;0.90;;
140;SDS011;65;48.778;9.160;2024-03-02T15:00:35;1.27;;;0.95;;
140;SDS011;65;48.778;9.160;2024-03-02T15:03:21;1.35;;;1.10;;
140;SDS011;65;48.778;9.160;2024-03-02T15:06:07;1.05;;;0.90;;
140;SDS011;65;48.778;9.160;2024-03-02T15:08:53;1.35;;;0.80;;
140;SDS011;65;48.778;9.160;2024-03-02T15:11:41;1.63;;;0.90;;
140;SDS011;65;48.778;9.160;2024-03-02T15:14:32;2.58;;;1.17;;
140;SDS011;65;48.778;9.160;2024-03-02T15:17:23;2.22;;;1.15;;
140;SDS011;65;48.778;9.160;2024-03-02T15:20:12;1.67;;;1.08;;
140;SDS011;65;48.778;9.160;2024-03-02T15:22:58;1.05;;;0.93;;
140;SDS011;65;48.778;9.160;2024-03-02T15:25:44;1.17;;;0.85;;
140;SDS011;65;48.778;9.160;2024-03-02T15:28:30;2.17;;;1.17;;
140;SDS011;65;48.778;9.160;2024-03-02T15:31:17;2.17;;;1.40;;
140;SDS011;65;48.778;9.160;2024-03-02T15:34:10;1.80;;;1.20;;
140;SDS011;65;48.778;9.160;2024-03-02T15:37:02;1.65;;;1.10;;
140;SDS011;65;48.778;9.160;2024-03-02T15:39:48;1.60;;;1.17;;
140;SDS011;65;48.778;9.160;2024-03-02T15:42:35;1.52;;;1.10;;
140;SDS011;65;48.778;9.160;2024-03-02T15:45:21;2.15;;;1.30;;
140;SDS011;65;48.778;9.160;2024-03-02T15:48:07;2.30;;;1.27;;
140;SDS011;65;48.778;9.160;2024-03-02T15:50:52;3.35;;;1.58;;
140;SDS011;65;48.778;9.160;2024-03-02T15:53:38;2.70;;;1.50;;
140;SDS011;65;48.778;9.160;2024-03-02T15:56:30;2.60;;;1.10;;
140;SDS011;65;48.778;9.160;2024-03-02T15:59:15;2.10;;;1.33;;
140;SDS011;65;48.778;9.160;2024-03-02T16:02:01;4.20;;;1.65;;
140;SDS011;65;48.778;9.160;2024-03-02T16:04:51;3.45;;;1.83;;
140;SDS011;65;48.778;9.160;2024-03-02T16:07:37;4.05;;;1.90;;
140;SDS011;65;48.778;9.160;2024-03-02T16:10:23;1.77;;;1.23;;
140;SDS011;65;48.778;9.160;2024-03-02T16:13:10;3.05;;;1.70;;
140;SDS011;65;48.778;9.160;2024-03-02T16:15:57;2.40;;;1.40;;
140;SDS011;65;48.778;9.160;2024-03-02T16:18:48;3.85;;;1.17;;
140;SDS011;65;48.778;9.160;2024-03-02T16:21:36;2.42;;;1.40;;
140;SDS011;65;48.778;9.160;2024-03-02T16:30:49;3.22;;;1.75;;
140;SDS011;65;48.778;9.160;2024-03-02T16:41:32;2.75;;;1.67;;
140;SDS011;65;48.778;9.160;2024-03-02T16:44:22;3.95;;;2.08;;
140;SDS011;65;48.778;9.160;2024-03-02T17:02:50;4.25;;;2.22;;
140;SDS011;65;48.778;9.160;2024-03-02T17:08:35;5.03;;;2.60;;
140;SDS011;65;48.778;9.160;2024-03-02T17:25:24;4.93;;;2.63;;
140;SDS011;65;48.778;9.160;2024-03-02T17:31:18;5.20;;;2.63;;
140;SDS011;65;48.778;9.160;2024-03-02T17:37:03;9.45;;;3.35;;
140;SDS011;65;48.778;9.160;2024-03-02T17:39:49;4.43;;;2.60;;
140;SDS011;65;48.778;9.160;2024-03-02T17:42:35;4.65;;;2.55;;
140;SDS011;65;48.778;9.160;2024-03-02T17:45:48;9.77;;;3.10;;
140;SDS011;65;48.778;9.160;2024-03-02T17:48:34;8.63;;;3.05;;
140;SDS011;65;48.778;9.160;2024-03-02T17:51:20;7.70;;;3.80;;
140;SDS011;65;48.778;9.160;2024-03-02T17:54:06;6.65;;;4.00;;
140;SDS011;65;48.778;9.160;2024-03-02T17:56:52;7.28;;;3.63;;
140;SDS011;65;48.778;9.160;2024-03-02T17:59:38;8.98;;;4.35;;
140;SDS011;65;48.778;9.160;2024-03-02T18:02:24;7.57;;;4.32;;
140;SDS011;65;48.778;9.160;2024-03-02T18:05:15;8.13;;;4.40;;
140;SDS011;65;48.778;9.160;2024-03-02T18:08:04;8.05;;;3.85;;
140;SDS011;65;48.778;9.160;2024-03-02T18:10:51;7.63;;;4.55;;
140;SDS011;65;48.778;9.160;2024-03-02T18:13:37;8.13;;;4.55;;
140;SDS011;65;48.778;9.160;2024-03-02T18:16:26;9.75;;;4.80;;
140;SDS011;65;48.778;9.160;2024-03-02T18:19:15;10.07;;;5.20;;
140;SDS011;65;48.778;9.160;2024-03-02T18:22:03;10.65;;;5.18;;
140;SDS011;65;48.778;9.160;2024-03-02T18:24:52;11.38;;;5.63;;
140;SDS011;65;48.778;9.160;2024-03-02T18:27:41;8.65;;;4.65;;
140;SDS011;65;48.778;9.160;2024-03-02T18:30:27;10.43;;;5.53;;
140;SDS011;65;48.778;9.160;2024-03-02T18:33:16;9.80;;;6.10;;
140;SDS011;65;48.778;9.160;2024-03-02T18:36:05;10.20;;;4.90;;
140;SDS011;65;48.778;9.160;2024-03-02T18:38:51;8.50;;;5.22;;
140;SDS011;65;48.778;9.160;2024-03-02T18:41:37;12.15;;;5.93;;
140;SDS011;65;48.778;9.160;2024-03-02T18:44:23;10.65;;;5.88;;
140;SDS011;65;48.778;9.160;2024-03-02T18:47:09;10.40;;;5.18;;
140;SDS011;65;48.778;9.160;2024-03-02T18:49:58;12.25;;;5.32;;
140;SDS011;65;48.778;9.160;2024-03-02T18:52:46;9.63;;;6.03;;
140;SDS011;65;48.778;9.160;2024-03-02T18:55:32;11.13;;;5.85;;
140;SDS011;65;48.778;9.160;2024-03-02T18:58:18;13.68;;;6.10;;
140;SDS011;65;48.778;9.160;2024-03-02T19:01:04;11.57;;;6.57;;
140;SDS011;65;48.778;9.160;2024-03-02T19:03:51;12.82;;;6.30;;